If you wish to contribute or participate in the discussions about articles you are invited to join SKYbrary as a registered user

 Actions

Kumamato Airport

From SKYbrary Wiki

RJFT
Airport
ICAO: RJFT – IATA: KMJ
Summary
Name Kumamato Airport
Region Asia and Pacific
Territory Japan JP.gif
Location Mashiki, Kumamoto Prefecture, Kyushu
Serving Kumamoto
Elevation 192.634 m
632 ft192.634 m
Coordinates 32° 50' 4.29" N, 130° 51' 29.65" E
Runways
Designator Length Width Surface ROPS
7/25 2999 m9,839.239 ft
46 m150.919 ft
ASP yes/yes


METAR
Observation RJFT 240700Z VRB03KT 9999 FEW040 30/14 Q1010
Station Kumamoto Airport
Date/Time 24 June 2019 07:00:00
Wind direction °
Wind speed 03 kts
Lowest cloud amount few clouds
Temperature 30°C
Dew point 14°C
Humidity 37%
QNH 1010 hPa
Weather condition n/a

Airport in Mashiki, Kumamoto, Japan.

Climatology

Humid Sub-tropical climate (Köppen climate classification Cfa)

Maps

Terrain

Loading map...

Airport Layout

Loading map...


Accidents & Serious Incidents at or in vicinity of RJFT

None on SKYbrary